Time;durP1;ratioP1;P1;durP2;ratioP2;P2;SDS_P1;SDS_P2;PMS_P1;PMS_P2;Temp;Humidity;BMP_temperature;BMP_pressure;BME280_temperature;BME280_humidity;BME280_pressure;Samples;Min_cycle;Max_cycle;Signal;HPM_P1;HPM_P2
2022/10/14 00:00:49;;;;;;;;;11.25;9.50;;;;;17.91;73.53;100895.22;2120192;27;49118;-66
2022/10/14 00:01:49;;;;;;;;;14.50;13.50;;;;;17.90;73.48;100894.34;2118725;27;45538;-66
2022/10/14 00:02:50;;;;;;;;;9.25;9.25;;;;;17.90;73.58;100896.16;2111607;27;46234;-67
2022/10/14 00:03:51;;;;;;;;;10.25;8.75;;;;;17.91;73.37;100892.53;2110396;27;46278;-66
2022/10/14 00:04:51;;;;;;;;;10.75;10.75;;;;;17.90;73.99;100893.47;2120434;27;46952;-66
2022/10/14 00:05:51;;;;;;;;;13.50;11.75;;;;;17.90;73.74;100897.03;2116017;27;46647;-67
2022/10/14 00:06:52;;;;;;;;;11.75;9.00;;;;;17.90;73.67;100896.16;2121892;27;45936;-65
2022/10/14 00:07:52;;;;;;;;;9.00;9.00;;;;;17.91;73.27;100895.22;2120226;27;45485;-66
2022/10/14 00:08:53;;;;;;;;;10.00;10.00;;;;;17.91;73.52;100897.91;2120005;27;46772;-66
2022/10/14 00:09:53;;;;;;;;;12.60;11.00;;;;;17.91;73.70;100903.25;2117053;27;46671;-66
2022/10/14 00:10:54;;;;;;;;;14.75;14.50;;;;;17.90;73.39;100898.84;2120225;27;46945;-65
2022/10/14 00:11:55;;;;;;;;;11.25;9.75;;;;;17.92;73.54;100896.97;2116187;27;46443;-65
2022/10/14 00:12:55;;;;;;;;;11.00;10.50;;;;;17.91;73.58;100890.75;2120051;27;45100;-65
2022/10/14 00:13:58;;;;;;;;;21.25;20.50;;;;;17.92;73.52;100897.84;2114463;27;46770;-66
2022/10/14 00:14:59;;;;;;;;;14.60;14.60;;;;;17.92;73.57;100894.28;2114720;27;46089;-66
2022/10/14 00:16:00;;;;;;;;;19.75;18.25;;;;;17.92;73.65;100892.47;2118159;27;46610;-66
2022/10/14 00:17:01;;;;;;;;;16.00;16.00;;;;;17.91;73.63;100893.44;2113406;27;46768;-66
2022/10/14 00:18:01;;;;;;;;;13.25;11.75;;;;;17.91;73.55;100888.06;2115899;27;46124;-65
2022/10/14 00:19:03;;;;;;;;;12.25;11.50;;;;;17.90;73.41;100885.41;2120407;27;46256;-65
2022/10/14 00:20:05;;;;;;;;;13.00;13.00;;;;;17.90;73.51;100890.78;2117625;27;45736;-66
2022/10/14 00:21:05;;;;;;;;;10.00;10.00;;;;;17.89;73.57;100889.06;2097887;28;46968;-66
2022/10/14 00:22:05;;;;;;;;;10.25;10.25;;;;;17.89;73.55;100884.56;2102237;28;46798;-66
2022/10/14 00:23:06;;;;;;;;;8.50;8.50;;;;;17.88;73.48;100890.88;2095802;28;46082;-65
2022/10/14 00:24:07;;;;;;;;;11.75;11.75;;;;;17.88;73.67;100895.38;2093150;28;46281;-66
2022/10/14 00:25:07;;;;;;;;;13.00;11.80;;;;;17.88;73.70;100892.69;2102898;28;46555;-66
2022/10/14 00:26:19;;;;;;;;;10.00;9.75;;;;;17.87;73.49;100897.19;2101967;28;47033;-67
2022/10/14 00:27:19;;;;;;;;;11.40;10.40;;;;;17.86;73.76;100886.53;2103081;28;45590;-66
2022/10/14 00:28:20;;;;;;;;;11.50;11.50;;;;;17.84;73.68;100889.28;2101913;28;46693;-65
2022/10/14 00:29:20;;;;;;;;;11.00;11.00;;;;;17.82;73.68;100885.81;2098673;28;45853;-66
2022/10/14 00:30:20;;;;;;;;;8.00;8.00;;;;;17.82;73.75;100883.13;2102065;28;46563;-67
2022/10/14 00:31:21;;;;;;;;;12.00;11.50;;;;;17.82;73.76;100879.56;2103463;28;45790;-67
2022/10/14 00:32:21;;;;;;;;;85.75;79.75;;;;;17.82;73.63;100875.06;2100380;28;45609;-66
2022/10/14 00:33:22;;;;;;;;;25.75;25.00;;;;;17.83;73.80;100878.63;2096663;28;46387;-65
2022/10/14 00:34:23;;;;;;;;;23.20;21.40;;;;;17.83;73.81;100868.75;2102930;28;46929;-66
2022/10/14 00:35:23;;;;;;;;;16.75;16.75;;;;;17.82;73.90;100875.06;2103106;28;46757;-66
2022/10/14 00:36:24;;;;;;;;;13.50;12.50;;;;;17.83;73.92;100871.44;2104268;27;46967;-65
2022/10/14 00:37:24;;;;;;;;;13.40;13.20;;;;;17.83;73.72;100874.13;2106642;27;46068;-66
2022/10/14 00:38:25;;;;;;;;;15.00;11.67;;;;;17.82;73.93;100867.03;2103260;28;47262;-65
2022/10/14 00:39:26;;;;;;;;;10.50;10.50;;;;;17.83;73.90;100871.44;2102711;28;46437;-65
2022/10/14 00:40:26;;;;;;;;;9.00;7.75;;;;;17.83;73.98;100871.44;2107240;27;46836;-66
2022/10/14 00:41:30;;;;;;;;;12.75;10.75;;;;;17.83;74.02;100871.44;2103679;28;45307;-66
2022/10/14 00:42:32;;;;;;;;;24.80;22.60;;;;;17.84;74.03;100861.56;2100753;28;47151;-66
2022/10/14 00:43:52;;;;;;;;;14.80;13.60;;;;;17.84;73.80;100865.13;2100168;28;46726;-68
2022/10/14 00:45:25;;;;;;;;;12.80;11.80;;;;;17.84;73.89;100862.44;2098950;27;45074;-66
2022/10/14 00:46:29;;;;;;;;;12.00;11.20;;;;;17.85;74.02;100856.13;2075317;28;45620;-66
2022/10/14 00:47:30;;;;;;;;;10.80;10.80;;;;;17.87;74.24;100861.41;2078238;28;46717;-66
2022/10/14 00:48:30;;;;;;;;;8.25;8.25;;;;;17.87;74.10;100853.34;2076025;28;46945;-65
2022/10/14 00:49:37;;;;;;;;;6.75;6.75;;;;;17.84;74.22;100854.38;2078247;28;45843;-66
2022/10/14 00:50:42;;;;;;;;;9.80;7.80;;;;;17.85;73.76;100852.56;2078672;28;46105;-64
2022/10/14 00:51:48;;;;;;;;;9.50;9.50;;;;;17.85;73.78;100857.94;2079431;28;46663;-67
2022/10/14 00:52:49;;;;;;;;;8.25;8.25;;;;;17.84;73.94;100848.16;2078756;28;45965;-65
2022/10/14 00:53:50;;;;;;;;;10.00;10.00;;;;;17.84;74.36;100849.03;2078476;28;46573;-66
2022/10/14 00:54:55;;;;;;;;;9.00;9.00;;;;;17.84;74.01;100850.84;2079584;28;45179;-68
2022/10/14 00:55:56;;;;;;;;;15.50;11.50;;;;;17.84;73.88;100840.09;2074866;28;46733;-66
2022/10/14 00:56:56;;;;;;;;;6.00;5.33;;;;;17.84;74.12;100837.41;2086735;28;46323;-65
2022/10/14 00:57:57;;;;;;;;;11.00;10.67;;;;;17.85;73.95;100841.84;2085906;28;45584;-65
2022/10/14 00:58:59;;;;;;;;;10.00;8.67;;;;;17.84;74.12;100842.78;2086329;28;46595;-66
2022/10/14 01:00:07;;;;;;;;;9.00;9.00;;;;;17.83;74.15;100847.28;2079408;28;46550;-66
2022/10/14 01:01:07;;;;;;;;;10.25;10.25;;;;;17.83;74.05;100847.28;2081280;28;46746;-65
2022/10/14 01:02:07;;;;;;;;;9.00;9.00;;;;;17.83;74.02;100849.09;2086587;28;46420;-66
2022/10/14 01:03:10;;;;;;;;;8.33;8.33;;;;;17.83;74.08;100843.72;2086258;28;46106;-64
2022/10/14 01:04:10;;;;;;;;;9.00;9.00;;;;;17.82;73.97;100842.88;2085500;28;46540;-65
2022/10/14 01:05:13;;;;;;;;;9.67;9.67;;;;;17.82;73.77;100839.31;2086882;28;46637;-65
2022/10/14 01:06:37;;;;;;;;;9.25;7.50;;;;;17.81;74.18;100841.13;2082619;28;46191;-66
2022/10/14 01:07:47;;;;;;;;;7.75;7.50;;;;;17.79;74.16;100840.34;2081314;28;46516;-64
2022/10/14 01:09:08;;;;;;;;;9.25;9.25;;;;;17.80;74.08;100843.88;2086842;28;46355;-64
2022/10/14 01:10:36;;;;;;;;;10.25;8.00;;;;;17.79;74.29;100832.28;2078340;28;46613;-67
2022/10/14 01:11:43;;;;;;;;;9.25;8.00;;;;;17.80;74.02;100841.19;2078331;28;46529;-66
2022/10/14 01:13:07;;;;;;;;;8.25;8.00;;;;;17.78;74.00;100833.19;2082358;28;46955;-66
2022/10/14 01:14:32;;;;;;;;;7.75;7.75;;;;;17.80;73.99;100833.16;2062039;28;45340;-66
2022/10/14 01:15:54;;;;;;;;;8.75;8.75;;;;;17.80;74.32;100838.53;2059128;28;46926;-65
2022/10/14 01:17:00;;;;;;;;;7.00;7.00;;;;;17.81;74.06;100840.25;2062044;28;46348;-66
2022/10/14 01:18:08;;;;;;;;;9.00;9.00;;;;;17.80;74.18;100834.03;2059076;28;46862;-66
2022/10/14 01:20:02;;;;;;;;;10.00;9.00;;;;;17.78;74.20;100830.50;2062177;28;46419;-65
2022/10/14 01:21:37;;;;;;;;;10.00;8.00;;;;;17.76;74.24;100824.34;2053498;28;46954;-66
2022/10/14 01:22:54;;;;;;;;;6.75;6.75;;;;;17.76;74.22;100829.72;2049385;28;46627;-65
2022/10/14 01:24:18;;;;;;;;;8.00;8.00;;;;;17.77;74.35;100822.53;2055182;28;46987;-66
2022/10/14 01:25:32;;;;;;;;;8.00;8.00;;;;;17.77;74.30;100818.03;2063363;28;45468;-65
2022/10/14 01:27:00;;;;;;;;;9.00;9.00;;;;;17.79;74.35;100818.00;2063046;28;46475;-66
2022/10/14 01:28:22;;;;;;;;;9.75;9.75;;;;;17.77;74.13;100818.03;2069059;28;46703;-65
2022/10/14 01:29:50;;;;;;;;;7.50;7.50;;;;;17.78;74.14;100817.09;2063255;28;46319;-65
2022/10/14 01:30:59;;;;;;;;;7.75;7.75;;;;;17.78;74.14;100810.84;2063185;28;46873;-67
2022/10/14 01:32:11;;;;;;;;;5.75;5.75;;;;;17.78;74.38;100806.34;2063484;28;46703;-66
2022/10/14 01:33:22;;;;;;;;;6.75;6.75;;;;;17.78;74.32;100809.03;2063347;28;45414;-66
2022/10/14 01:34:33;;;;;;;;;6.50;6.50;;;;;17.78;74.71;100806.34;2070558;28;45274;-65
2022/10/14 01:36:01;;;;;;;;;6.75;6.75;;;;;17.78;74.18;100811.72;2067531;28;46891;-66
2022/10/14 01:37:08;;;;;;;;;6.50;6.50;;;;;17.78;74.01;100809.03;2063695;28;47016;-66
2022/10/14 01:38:23;;;;;;;;;6.25;5.75;;;;;17.78;74.18;100806.34;2063550;28;46101;-67
2022/10/14 01:39:28;;;;;;;;;5.50;5.50;;;;;17.79;74.27;100813.50;2066069;28;45671;-65
2022/10/14 01:40:35;;;;;;;;;7.00;6.25;;;;;17.79;74.30;100809.94;2067356;28;46555;-66
2022/10/14 01:41:42;;;;;;;;;6.75;6.75;;;;;17.78;74.42;100806.34;2062811;28;46849;-66
2022/10/14 01:42:44;;;;;;;;;5.50;5.50;;;;;17.79;74.28;100816.19;2063322;28;45873;-65
2022/10/14 01:43:48;;;;;;;;;5.75;5.75;;;;;17.79;74.50;100804.56;2063049;28;46731;-66
2022/10/14 01:44:56;;;;;;;;;5.50;5.50;;;;;17.79;74.13;100809.94;2063678;28;45996;-66
2022/10/14 01:45:59;;;;;;;;;5.00;5.00;;;;;17.79;74.45;100807.25;2063336;28;46589;-65
2022/10/14 01:47:02;;;;;;;;;6.25;6.00;;;;;17.78;74.43;100803.66;2061451;28;46794;-68
2022/10/14 01:48:05;;;;;;;;;6.00;6.00;;;;;17.79;74.42;100807.25;2063146;28;45957;-67
2022/10/14 01:49:22;;;;;;;;;6.25;6.25;;;;;17.77;74.34;100793.88;2063150;28;46751;-66
2022/10/14 01:50:25;;;;;;;;;5.75;5.75;;;;;17.76;74.64;100794.84;2062968;28;48611;-66
2022/10/14 01:51:33;;;;;;;;;6.00;6.00;;;;;17.76;74.49;100800.19;2056790;28;45778;-65
2022/10/14 01:52:40;;;;;;;;;6.00;6.00;;;;;17.76;74.46;100799.34;2083447;28;47198;-66
2022/10/14 01:53:52;;;;;;;;;5.25;5.00;;;;;17.77;74.46;100799.25;2094573;28;46880;-65
2022/10/14 01:54:58;;;;;;;;;4.25;4.25;;;;;17.75;74.63;100802.97;2096279;28;46762;-65
2022/10/14 01:56:01;;;;;;;;;5.75;5.75;;;;;17.76;74.70;100791.28;2092224;28;46554;-66
2022/10/14 01:57:10;;;;;;;;;8.00;6.75;;;;;17.76;74.35;100796.66;2087244;28;46561;-66
2022/10/14 01:58:13;;;;;;;;;5.50;4.75;;;;;17.77;74.46;100801.94;2089048;28;46442;-65
2022/10/14 01:59:17;;;;;;;;;6.25;6.25;;;;;17.78;74.43;100800.13;2117091;27;46326;-66
2022/10/14 02:00:17;;;;;;;;;5.75;5.75;;;;;17.79;74.60;100801.88;2114884;27;45893;-67
2022/10/14 02:01:18;;;;;;;;;5.67;5.67;;;;;17.79;74.26;100805.44;2116643;27;46436;-66
2022/10/14 02:02:18;;;;;;;;;4.33;4.33;;;;;17.79;74.46;100793.84;2105305;28;46275;-65
2022/10/14 02:03:18;;;;;;;;;4.33;4.33;;;;;17.78;74.40;100798.31;2106987;27;46189;-66
2022/10/14 02:04:22;;;;;;;;;7.67;5.00;;;;;17.79;74.42;100796.53;2114975;27;46760;-65
2022/10/14 02:05:57;;;;;;;;;6.50;5.25;;;;;17.78;74.03;100798.31;2113956;27;46341;-66
2022/10/14 02:07:10;;;;;;;;;4.50;4.50;;;;;17.80;74.48;100799.13;2096245;28;46625;-65
2022/10/14 02:08:18;;;;;;;;;5.75;5.75;;;;;17.80;74.93;100799.13;2089409;28;46390;-64
2022/10/14 02:10:02;;;;;;;;;4.75;4.75;;;;;17.81;74.63;100802.69;2080256;28;46791;-65
2022/10/14 02:11:14;;;;;;;;;4.50;4.00;;;;;17.81;74.42;100797.31;2084913;28;45596;-67
2022/10/14 02:12:23;;;;;;;;;4.00;4.00;;;;;17.80;74.01;100790.19;2088037;28;46008;-67
2022/10/14 02:13:47;;;;;;;;;5.00;5.00;;;;;17.77;74.38;100788.50;2086968;28;46856;-65
2022/10/14 02:14:56;;;;;;;;;4.75;4.75;;;;;17.78;74.54;100790.25;2085616;28;45822;-67
2022/10/14 02:16:07;;;;;;;;;4.25;4.25;;;;;17.79;74.37;100785.78;2091182;28;46911;-65
2022/10/14 02:17:18;;;;;;;;;6.50;5.75;;;;;17.79;74.17;100786.66;2087316;28;46366;-64
2022/10/14 02:18:24;;;;;;;;;3.75;3.75;;;;;17.79;74.84;100780.41;2086683;28;45194;-65
2022/10/14 02:19:31;;;;;;;;;6.25;5.00;;;;;17.78;74.62;100779.50;2088246;28;46553;-66
2022/10/14 02:21:00;;;;;;;;;9.25;7.00;;;;;17.78;74.31;100781.31;2088147;28;45332;-65
2022/10/14 02:22:09;;;;;;;;;5.25;5.00;;;;;17.80;74.60;100776.78;2050437;28;45855;-65
2022/10/14 02:23:19;;;;;;;;;6.50;6.50;;;;;17.80;74.34;100780.34;2054660;28;46700;-66
2022/10/14 02:24:25;;;;;;;;;7.00;7.00;;;;;17.79;74.69;100773.22;2054758;28;46090;-65
2022/10/14 02:25:32;;;;;;;;;6.00;6.00;;;;;17.80;74.48;100782.16;2047214;28;45867;-65
2022/10/14 02:26:35;;;;;;;;;5.25;5.25;;;;;17.79;74.59;100775.91;2055047;28;46669;-65
2022/10/14 02:27:38;;;;;;;;;5.00;5.00;;;;;17.78;74.33;100771.47;2055091;28;46738;-65
2022/10/14 02:28:41;;;;;;;;;6.00;6.00;;;;;17.80;74.58;100768.72;2052433;28;46608;-65
2022/10/14 02:29:45;;;;;;;;;8.50;7.00;;;;;17.79;74.78;100775.91;2054392;28;46414;-65
2022/10/14 02:30:52;;;;;;;;;5.75;5.75;;;;;17.80;74.91;100776.78;2054465;28;46845;-65
2022/10/14 02:31:53;;;;;;;;;7.50;5.00;;;;;17.81;74.42;100773.16;2054466;28;46769;-66
2022/10/14 02:32:56;;;;;;;;;7.00;7.00;;;;;17.82;74.66;100788.31;2062872;28;45280;-65
2022/10/14 02:34:01;;;;;;;;;5.75;5.25;;;;;17.83;74.64;100781.97;2051546;28;46958;-66
2022/10/14 02:35:02;;;;;;;;;7.25;7.25;;;;;17.81;74.55;100775.81;2052778;28;46579;-65
2022/10/14 02:36:05;;;;;;;;;9.00;7.00;;;;;17.83;74.60;100779.31;2053197;28;46493;-65
2022/10/14 02:37:06;;;;;;;;;8.50;7.75;;;;;17.81;74.55;100773.16;2054495;28;47544;-67
2022/10/14 02:38:07;;;;;;;;;9.00;9.00;;;;;17.80;74.72;100769.59;2054730;28;46251;-66
2022/10/14 02:39:12;;;;;;;;;6.25;6.25;;;;;17.79;74.58;100765.19;2056986;28;46017;-64
2022/10/14 02:40:19;;;;;;;;;7.75;7.75;;;;;17.79;75.07;100765.19;2054554;28;46604;-64
2022/10/14 02:41:23;;;;;;;;;7.50;7.50;;;;;17.79;74.74;100765.19;2055439;28;47658;-65
2022/10/14 02:42:24;;;;;;;;;7.00;7.00;;;;;17.78;74.76;100763.41;2062144;28;47177;-66
2022/10/14 02:43:25;;;;;;;;;6.00;5.50;;;;;17.80;74.66;100766.03;2061786;28;46749;-66
2022/10/14 02:44:25;;;;;;;;;8.00;7.33;;;;;17.79;74.70;100764.31;2061291;28;45778;-65
2022/10/14 02:45:26;;;;;;;;;5.67;5.67;;;;;17.79;74.83;100770.53;2063226;28;45458;-66
2022/10/14 02:46:27;;;;;;;;;6.00;6.00;;;;;17.80;74.87;100766.91;2063054;28;45714;-65
2022/10/14 02:47:28;;;;;;;;;6.75;6.75;;;;;17.80;74.72;100768.72;2063258;28;46351;-65
2022/10/14 02:48:28;;;;;;;;;7.33;6.67;;;;;17.80;74.93;100769.59;2064272;28;46149;-68
2022/10/14 02:49:29;;;;;;;;;6.00;6.00;;;;;17.82;74.98;100769.50;2077057;28;49276;-65
2022/10/14 02:50:29;;;;;;;;;6.67;6.67;;;;;17.82;74.71;100769.50;2079150;28;46695;-67
2022/10/14 02:51:29;;;;;;;;;4.33;4.33;;;;;17.82;74.70;100761.47;2079185;28;46446;-65
2022/10/14 02:52:30;;;;;;;;;6.00;6.00;;;;;17.83;74.63;100757.81;2079085;28;46357;-64
2022/10/14 02:53:30;;;;;;;;;5.00;5.00;;;;;17.83;74.78;100763.19;2078228;28;45600;-66
2022/10/14 02:54:30;;;;;;;;;5.00;5.00;;;;;17.83;74.44;100760.50;2079239;28;46658;-65
2022/10/14 02:55:31;;;;;;;;;5.67;5.00;;;;;17.81;74.70;100765.09;2070568;28;46605;-66
2022/10/14 02:56:31;;;;;;;;;3.33;3.33;;;;;17.81;74.78;100757.91;2076027;28;46449;-66
2022/10/14 02:57:31;;;;;;;;;7.00;7.00;;;;;17.82;74.90;100756.97;2073542;28;46591;-65
2022/10/14 02:58:32;;;;;;;;;6.67;6.00;;;;;17.82;74.99;100756.09;2072511;28;47009;-65
2022/10/14 02:59:32;;;;;;;;;7.67;7.67;;;;;17.81;74.83;100763.28;2084159;27;45693;-67
2022/10/14 03:00:33;;;;;;;;;8.00;8.00;;;;;17.81;74.68;100760.59;2122150;27;46077;-65
2022/10/14 03:01:33;;;;;;;;;6.33;6.33;;;;;17.82;74.72;100756.97;2121720;27;46346;-66
2022/10/14 03:02:33;;;;;;;;;6.00;4.33;;;;;17.82;74.83;100756.09;2122290;27;46428;-67
2022/10/14 03:03:34;;;;;;;;;6.33;6.33;;;;;17.83;74.78;100760.50;2121559;27;46477;-65
2022/10/14 03:04:35;;;;;;;;;5.00;5.00;;;;;17.81;74.75;100762.41;2121495;27;46310;-65
2022/10/14 03:05:35;;;;;;;;;5.50;5.50;;;;;17.80;74.87;100764.22;2122185;27;45689;-64
2022/10/14 03:06:35;;;;;;;;;4.67;4.67;;;;;17.81;75.11;100765.09;2114719;27;46626;-65
2022/10/14 03:07:36;;;;;;;;;6.67;6.67;;;;;17.80;75.08;100761.53;2114708;27;46874;-65
2022/10/14 03:08:36;;;;;;;;;9.00;7.00;;;;;17.80;74.93;100764.22;2122403;27;45719;-66
2022/10/14 03:09:36;;;;;;;;;6.00;6.00;;;;;17.80;74.95;100756.16;2116852;27;46731;-66
2022/10/14 03:10:37;;;;;;;;;8.67;7.00;;;;;17.80;74.68;100755.31;2113609;27;46669;-65
2022/10/14 03:11:37;;;;;;;;;6.33;6.33;;;;;17.79;74.67;100753.56;2111803;27;45630;-65
2022/10/14 03:12:37;;;;;;;;;6.00;6.00;;;;;17.79;74.92;100761.63;2109338;27;45722;-64
2022/10/14 03:13:38;;;;;;;;;7.67;6.33;;;;;17.76;75.01;100762.63;2113592;27;46814;-65
2022/10/14 03:14:38;;;;;;;;;6.00;6.00;;;;;17.77;75.12;100758.13;2113766;27;47054;-65
2022/10/14 03:15:39;;;;;;;;;5.33;5.33;;;;;17.77;75.04;100763.50;2120258;27;46807;-66
2022/10/14 03:16:39;;;;;;;;;9.00;6.00;;;;;17.77;74.91;100758.13;2119627;27;46700;-66
2022/10/14 03:17:39;;;;;;;;;3.00;3.00;;;;;17.77;75.09;100758.97;2119979;27;46146;-66
2022/10/14 03:18:40;;;;;;;;;6.00;3.67;;;;;17.76;74.89;100761.75;2113819;27;46372;-63
2022/10/14 03:19:40;;;;;;;;;5.00;4.00;;;;;17.74;74.73;100759.16;2121612;27;45951;-66
2022/10/14 03:20:44;;;;;;;;;6.00;6.00;;;;;17.72;75.03;100760.19;2122313;27;46291;-65
2022/10/14 03:21:44;;;;;;;;;4.50;4.50;;;;;17.71;75.11;100762.00;2121933;27;46915;-66
2022/10/14 03:22:45;;;;;;;;;5.33;5.00;;;;;17.71;75.00;100763.81;2120469;27;46675;-66
2022/10/14 03:23:45;;;;;;;;;3.00;3.00;;;;;17.68;74.90;100761.25;2113656;27;46380;-66
2022/10/14 03:24:45;;;;;;;;;6.33;4.00;;;;;17.67;75.07;100765.75;2116980;27;47009;-65
2022/10/14 03:25:46;;;;;;;;;5.00;5.00;;;;;17.67;75.41;100770.25;2122120;27;46469;-65
2022/10/14 03:26:46;;;;;;;;;3.00;3.00;;;;;17.66;75.42;100750.59;2116077;27;46835;-66
2022/10/14 03:27:46;;;;;;;;;4.67;4.67;;;;;17.64;75.42;100763.19;2119966;27;45584;-66
2022/10/14 03:28:47;;;;;;;;;4.50;3.50;;;;;17.64;75.39;100760.53;2112753;27;46655;-66
2022/10/14 03:29:47;;;;;;;;;4.00;4.00;;;;;17.64;75.38;100756.03;2112761;27;46125;-64
2022/10/14 03:30:47;;;;;;;;;3.33;3.33;;;;;17.64;75.29;100763.19;2117476;27;45785;-65
2022/10/14 03:31:48;;;;;;;;;7.00;7.00;;;;;17.64;75.38;100760.53;2113729;27;46300;-66
2022/10/14 03:32:48;;;;;;;;;3.67;3.67;;;;;17.64;75.42;100757.84;2121011;27;46245;-66
2022/10/14 03:33:48;;;;;;;;;3.00;3.00;;;;;17.65;75.52;100762.25;2114409;27;46991;-64
2022/10/14 03:34:49;;;;;;;;;2.67;2.67;;;;;17.63;75.36;100759.66;2112875;27;46414;-66
2022/10/14 03:35:49;;;;;;;;;4.00;4.00;;;;;17.63;75.45;100756.97;2114105;27;46496;-65
2022/10/14 03:36:49;;;;;;;;;3.33;2.00;;;;;17.63;75.31;100756.09;2114188;27;46005;-65
2022/10/14 03:37:52;;;;;;;;;3.00;3.00;;;;;17.61;75.35;100750.81;2113565;27;44946;-65
2022/10/14 03:38:52;;;;;;;;;4.50;4.50;;;;;17.61;75.45;100749.94;2109027;27;47037;-65
2022/10/14 03:39:52;;;;;;;;;4.00;4.00;;;;;17.61;74.80;100755.31;2111053;27;46679;-66
2022/10/14 03:40:53;;;;;;;;;3.67;3.00;;;;;17.59;75.14;100755.41;2118823;27;46524;-66
2022/10/14 03:41:53;;;;;;;;;5.00;4.00;;;;;17.59;75.03;100749.16;2113052;27;46933;-65
2022/10/14 03:42:58;;;;;;;;;3.00;3.00;;;;;17.58;75.28;100750.09;2113342;27;45479;-66
2022/10/14 03:43:58;;;;;;;;;6.00;5.00;;;;;17.56;75.26;100746.63;2115681;27;46427;-64
2022/10/14 03:44:58;;;;;;;;;4.67;4.67;;;;;17.56;75.18;100746.63;2117561;27;46877;-65
2022/10/14 03:45:59;;;;;;;;;4.33;4.33;;;;;17.56;75.47;100750.19;2115992;27;46332;-66
2022/10/14 03:46:59;;;;;;;;;5.00;3.33;;;;;17.56;75.46;100744.81;2118301;27;46760;-66
2022/10/14 03:47:59;;;;;;;;;2.33;2.33;;;;;17.58;75.58;100747.44;2113369;27;46625;-66
2022/10/14 03:49:00;;;;;;;;;2.33;2.33;;;;;17.57;75.32;100748.38;2116309;27;45672;-65
2022/10/14 03:50:01;;;;;;;;;3.00;3.00;;;;;17.57;75.67;100737.63;2112423;27;45891;-66
2022/10/14 03:51:02;;;;;;;;;2.75;2.75;;;;;17.57;75.40;100746.56;2098745;28;46833;-65
2022/10/14 03:52:02;;;;;;;;;2.67;2.67;;;;;17.56;75.15;100742.13;2111385;27;46370;-65
2022/10/14 03:53:03;;;;;;;;;5.25;4.00;;;;;17.57;75.50;100748.38;2119081;27;46508;-66
2022/10/14 03:54:04;;;;;;;;;2.00;2.00;;;;;17.56;75.26;100747.50;2115228;27;45984;-66
2022/10/14 03:55:05;;;;;;;;;2.00;2.00;;;;;17.57;75.13;100738.50;2097625;28;46279;-65
2022/10/14 03:56:05;;;;;;;;;2.33;2.33;;;;;17.57;75.37;100751.94;2082603;28;46786;-65
2022/10/14 03:57:06;;;;;;;;;4.00;3.00;;;;;17.58;75.44;100747.44;2095281;28;47051;-66
2022/10/14 03:58:07;;;;;;;;;3.00;3.00;;;;;17.58;75.41;100744.75;2121179;27;45220;-67
2022/10/14 03:59:08;;;;;;;;;1.25;1.25;;;;;17.59;75.48;100738.44;2122177;27;46102;-66
2022/10/14 04:00:09;;;;;;;;;3.67;3.67;;;;;17.59;75.40;100746.47;2120724;27;46339;-66
2022/10/14 04:01:09;;;;;;;;;4.25;2.50;;;;;17.60;75.54;100743.72;2117186;27;46342;-66
2022/10/14 04:02:09;;;;;;;;;3.00;3.00;;;;;17.61;75.14;100749.94;2119237;27;45892;-69
2022/10/14 04:03:10;;;;;;;;;2.67;2.67;;;;;17.61;75.42;100741.91;2121805;27;45683;-65
2022/10/14 04:04:10;;;;;;;;;3.00;3.00;;;;;17.61;75.37;100753.50;2121496;27;46454;-66
2022/10/14 04:05:10;;;;;;;;;3.00;2.00;;;;;17.61;75.18;100741.91;2117290;27;46114;-65
2022/10/14 04:06:13;;;;;;;;;3.00;3.00;;;;;17.63;75.33;100748.06;2120658;27;47012;-65
2022/10/14 04:07:13;;;;;;;;;1.75;1.75;;;;;17.62;75.34;100744.50;2104587;27;46278;-65
2022/10/14 04:08:13;;;;;;;;;2.00;1.67;;;;;17.63;75.21;100753.41;2110624;27;46351;-65
2022/10/14 04:09:14;;;;;;;;;1.00;1.00;;;;;17.63;74.86;100748.06;2121215;27;45947;-66
2022/10/14 04:10:14;;;;;;;;;2.00;2.00;;;;;17.60;75.06;100749.06;2119149;27;46591;-65
2022/10/14 04:11:16;;;;;;;;;1.00;1.00;;;;;17.60;74.56;100748.22;2118924;27;46653;-65
2022/10/14 04:12:16;;;;;;;;;1.00;1.00;;;;;17.58;74.67;100753.66;2119179;27;45631;-66
2022/10/14 04:13:16;;;;;;;;;2.00;2.00;;;;;17.56;74.71;100749.31;2113290;27;45964;-65
2022/10/14 04:14:17;;;;;;;;;2.67;2.00;;;;;17.56;74.77;100749.31;2116704;27;46390;-65
2022/10/14 04:15:17;;;;;;;;;1.33;1.00;;;;;17.57;75.10;100749.25;2119783;27;46680;-66
2022/10/14 04:16:17;;;;;;;;;0.00;0.00;;;;;17.56;74.79;100750.19;2119694;27;46295;-65
2022/10/14 04:17:17;;;;;;;;;2.00;2.00;;;;;17.56;75.09;100752.00;2120795;27;47671;-65
2022/10/14 04:18:18;;;;;;;;;1.00;1.00;;;;;17.56;74.65;100758.25;2114879;27;46655;-65
2022/10/14 04:19:18;;;;;;;;;1.00;1.00;;;;;17.57;74.88;100754.59;2116544;27;46317;-66
2022/10/14 04:20:19;;;;;;;;;0.67;0.67;;;;;17.57;75.00;100759.09;2116791;27;47783;-65
2022/10/14 04:21:19;;;;;;;;;0.00;0.00;;;;;17.55;74.74;100752.94;2115599;27;46526;-66
2022/10/14 04:22:21;;;;;;;;;2.00;2.00;;;;;17.56;74.61;100752.00;2113265;27;45420;-66
2022/10/14 04:23:21;;;;;;;;;0.00;0.00;;;;;17.55;74.64;100748.47;2113924;27;46879;-67
2022/10/14 04:24:22;;;;;;;;;0.00;0.00;;;;;17.54;74.68;100749.41;2115779;27;46374;-65
2022/10/14 04:25:22;;;;;;;;;0.00;0.00;;;;;17.53;74.65;100744.97;2110784;27;45410;-65
2022/10/14 04:26:23;;;;;;;;;0.00;0.00;;;;;17.52;74.18;100748.59;2097745;28;46348;-66
2022/10/14 04:27:24;;;;;;;;;0.00;0.00;;;;;17.51;74.34;100748.66;2108650;27;46421;-67
2022/10/14 04:28:24;;;;;;;;;0.00;0.00;;;;;17.52;74.38;100756.63;2111714;27;46351;-66
2022/10/14 04:29:24;;;;;;;;;0.33;0.33;;;;;17.50;74.27;100750.47;2112317;27;46363;-66
2022/10/14 04:30:25;;;;;;;;;0.00;0.00;;;;;17.50;74.21;100750.47;2117574;27;46840;-66
2022/10/14 04:31:25;;;;;;;;;0.33;0.33;;;;;17.49;74.36;100748.75;2101156;28;46607;-65
2022/10/14 04:32:25;;;;;;;;;0.00;0.00;;;;;17.46;74.58;100738.16;2097336;28;46341;-68
2022/10/14 04:33:26;;;;;;;;;1.00;1.00;;;;;17.47;74.49;100741.72;2118045;27;46472;-66
2022/10/14 04:34:27;;;;;;;;;0.25;0.25;;;;;17.45;74.46;100739.13;2116252;27;46068;-66
2022/10/14 04:35:27;;;;;;;;;0.33;0.00;;;;;17.45;74.73;100732.88;2115588;27;45456;-66
2022/10/14 04:36:27;;;;;;;;;1.00;1.00;;;;;17.46;74.50;100732.81;2113100;27;46535;-65
2022/10/14 04:37:29;;;;;;;;;0.00;0.00;;;;;17.46;74.42;100735.50;2120862;27;46430;-66
2022/10/14 04:38:30;;;;;;;;;1.00;1.00;;;;;17.46;74.50;100743.53;2120925;27;46553;-67
2022/10/14 04:39:30;;;;;;;;;2.33;1.67;;;;;17.46;74.65;100737.31;2108195;27;46057;-66
2022/10/14 04:40:30;;;;;;;;;1.00;1.00;;;;;17.45;74.43;100749.84;2103154;28;46407;-67
2022/10/14 04:41:31;;;;;;;;;1.00;1.00;;;;;17.44;74.54;100740.06;2114676;27;46871;-66
2022/10/14 04:42:31;;;;;;;;;1.00;1.00;;;;;17.43;74.56;100738.34;2120049;27;46816;-67
2022/10/14 04:43:31;;;;;;;;;1.00;1.00;;;;;17.43;74.56;100745.50;2115808;27;46658;-65
2022/10/14 04:44:32;;;;;;;;;1.00;1.00;;;;;17.42;74.61;100739.28;2121147;27;45851;-67
2022/10/14 04:45:32;;;;;;;;;1.00;1.00;;;;;17.43;74.61;100745.50;2119492;27;46715;-65
2022/10/14 04:46:33;;;;;;;;;0.67;0.67;;;;;17.43;74.71;100738.34;2113162;27;46445;-69
2022/10/14 04:47:33;;;;;;;;;1.00;1.00;;;;;17.44;74.45;100736.53;2120295;27;46803;-68
2022/10/14 04:48:33;;;;;;;;;0.33;0.33;;;;;17.44;74.66;100740.06;2118735;27;46799;-67
2022/10/14 04:49:33;;;;;;;;;1.00;0.00;;;;;17.44;74.34;100737.38;2113827;27;46656;-66
2022/10/14 04:50:34;;;;;;;;;2.00;0.00;;;;;17.45;74.35;100743.63;2119009;27;47188;-66
2022/10/14 04:51:34;;;;;;;;;0.33;0.33;;;;;17.44;74.35;100744.56;2119555;27;46654;-65
2022/10/14 04:52:34;;;;;;;;;2.00;0.33;;;;;17.43;74.69;100737.47;2114268;27;45947;-68
2022/10/14 04:53:35;;;;;;;;;1.00;1.00;;;;;17.44;74.62;100739.19;2117800;27;46318;-66
2022/10/14 04:54:35;;;;;;;;;1.67;1.67;;;;;17.43;74.60;100738.34;2119445;27;46246;-66
2022/10/14 04:55:35;;;;;;;;;0.33;0.33;;;;;17.43;74.43;100738.34;2118381;27;46198;-67
2022/10/14 04:56:36;;;;;;;;;1.00;1.00;;;;;17.44;74.76;100736.53;2121117;27;46594;-66